Flight Track Log - Related Links

Times and Time Zones

All times are in EDT time to prevent confusion due to time zone crossing. See the CES2227 flight status page for this flight to view local times or setup timezone preferences in your user account.

Time Position Orientation Groundspeed Altitude Reporting Facility
EDT Latitude Longitude Course Direction KTS MPH feet Rate Location/Type
Sun 04:55:48 AM 31.1050 121.8070 163° South 171 197 2,300  Level FlightAware ADS-B
Sun 04:56:25 AM 31.0700 121.8200 162° South 222 255 3,400 2,160 Climbing FlightAware ADS-B
Sun 04:57:03 AM 31.0240 121.8350 164° South 273 314 5,000 2,762 Climbing FlightAware ADS-B
Sun 04:57:28 AM 31.0000 121.8270 196° South 274 315 6,300 3,491 Climbing FlightAware ADS-B
Sun 04:57:58 AM 30.9800 121.7850 241° Southwest 273 314 8,200 3,508 Climbing FlightAware ADS-B
Sun 04:58:33 AM 30.9650 121.7350 251° West 279 321 10,100 2,571 Climbing FlightAware ADS-B
Sun 04:59:08 AM 30.9710 121.6810 277° West 313 360 11,200 2,160 Climbing FlightAware ADS-B
Sun 04:59:48 AM 30.9840 121.6100 282° West 335 386 12,800 2,471 Climbing FlightAware ADS-B
Sun 05:00:50 AM 31.0060 121.4990 283° West 355 409 15,400 2,543 Climbing FlightAware ADS-B
Sun 05:01:20 AM 31.0170 121.4430 283° West 361 415 16,700 2,714 Climbing FlightAware ADS-B
Sun 05:02:14 AM 31.0360 121.3430 283° West 360 414 19,200 2,000 Climbing FlightAware ADS-B
Sun 05:02:50 AM 31.0500 121.2720 283° West 367 422 19,700 283 Climbing FlightAware ADS-B
Sun 05:04:00 AM 31.1080 121.1540 300° West 380 437 19,700  Level FlightAware ADS-B
Sun 05:04:15 AM 31.1310 121.1460 343° North 386 444 19,700  Level FlightAware ADS-B
Sun 05:05:15 AM 31.2350 121.1360 355° North 387 445 19,700  Level FlightAware ADS-B
Sun 05:05:55 AM 31.3110 121.1290 356° North 387 445 19,700  Level FlightAware ADS-B
Sun 05:06:38 AM 31.3860 121.1220 355° North 387 445 19,700  Level FlightAware ADS-B
Sun 05:07:16 AM 31.4490 121.1140 354° North 381 438 19,700 176 Level FlightAware ADS-B
Sun 05:07:46 AM 31.4980 121.0910 338° Northwest 380 437 19,900 1,600 Climbing FlightAware ADS-B
Sun 05:08:16 AM 31.5550 121.0610 336° Northwest 383 441 21,300 2,182 Climbing FlightAware ADS-B
Sun 05:09:03 AM 31.6260 121.0230 336° Northwest 392 451 22,700 1,946 Climbing FlightAware ADS-B
Sun 05:10:07 AM 31.7390 120.9630 336° Northwest 399 459 24,900 1,839 Climbing FlightAware ADS-B
Sun 05:11:07 AM 31.8370 120.9100 335° Northwest 412 474 26,500 1,655 Climbing FlightAware ADS-B
Sun 05:11:34 AM 31.8840 120.8850 336° Northwest 416 479 27,300 1,644 Climbing FlightAware ADS-B
Sun 05:12:20 AM 31.9590 120.8450 336° Northwest 425 489 28,500 1,663 Climbing FlightAware ADS-B
Sun 05:12:57 AM 32.0330 120.8060 336° Northwest 433 498 29,600 1,725 Climbing FlightAware ADS-B
Sun 05:13:40 AM 32.1080 120.7570 331° Northwest 428 493 30,800 1,933 Climbing FlightAware ADS-B
Sun 05:14:27 AM 32.1610 120.6750 307° West 411 473 32,500 2,494 Climbing FlightAware ADS-B
Sun 05:14:57 AM 32.1770 120.6100 286° West 390 449 34,000 1,579 Climbing FlightAware ADS-B
Sun 05:15:24 AM 32.1870 120.5630 284° West 390 449 34,000  Level FlightAware ADS-B
Sun 05:16:00 AM 32.2000 120.4990 284° West 390 449 34,000  Level FlightAware ADS-B
Sun 05:16:36 AM 32.2130 120.4360 284° West 390 449 34,000  Level FlightAware ADS-B
Sun 05:17:24 AM 32.2310 120.3520 284° West 390 449 34,000  Level FlightAware ADS-B
Sun 05:18:00 AM 32.2440 120.2880 284° West 390 449 34,000  Level FlightAware ADS-B
Sun 05:18:24 AM 32.2530 120.2460 284° West 390 449 34,000  Level FlightAware ADS-B
Sun 05:19:24 AM 32.2760 120.1400 284° West 390 449 34,000  Level FlightAware ADS-B
Sun 05:19:48 AM 32.2840 120.0980 283° West 390 449 34,000  Level FlightAware ADS-B
Sun 05:20:24 AM 32.2980 120.0350 285° West 390 449 34,000  Level FlightAware ADS-B
Sun 05:21:25 AM 32.3200 119.9270 284° West 390 449 34,000  Level FlightAware ADS-B
Sun 05:22:02 AM 32.3340 119.8620 284° West 390 449 34,000  Level FlightAware ADS-B
Sun 05:22:38 AM 32.3470 119.7990 284° West 390 449 34,000  Level FlightAware ADS-B
Sun 05:23:38 AM 32.3700 119.6930 284° West 390 449 34,000  Level FlightAware ADS-B
Sun 05:24:14 AM 32.3830 119.6300 284° West 390 449 34,000 445 Level FlightAware ADS-B
Sun 05:27:00 AM 32.4103 119.3342 276° West  Level Estimated
Sun 05:28:00 AM 32.4201 119.2272 276° West  Level Estimated
Sun 05:28:21 AM 32.0310 118.9580 276° West 391 450 36,100  Level FlightAware ADS-B
Sun 05:29:00 AM 32.4297 119.1202 276° West  Level Estimated
Sun 05:29:25 AM 31.9950 118.8280 252° West 391 450 36,100  Level FlightAware ADS-B
Sun 05:29:55 AM 31.9750 118.7670 249° West 395 455 36,100  Level FlightAware ADS-B
Sun 05:30:29 AM 31.9490 118.6990 246° West 394 453 36,100  Level FlightAware ADS-B
Sun 05:30:59 AM 31.9260 118.6400 245° Southwest 394 453 36,100  Level FlightAware ADS-B
Sun 05:31:41 AM 31.8960 118.5610 246° West 393 452 36,100  Level FlightAware ADS-B
Sun 05:32:51 AM 31.8420 118.4220 245° Southwest 392 451 36,100  Level FlightAware ADS-B
Sun 05:33:24 AM 31.8240 118.3750 246° West 392 451 36,100  Level FlightAware ADS-B
Sun 05:34:09 AM 31.7860 118.2780 245° Southwest 394 453 36,100  Level FlightAware ADS-B
Sun 05:34:51 AM 31.7530 118.1920 246° West 394 453 36,100  Level FlightAware ADS-B
Sun 05:35:27 AM 31.7390 118.1180 257° West 389 448 36,100  Level FlightAware ADS-B
Sun 05:35:45 AM 31.7380 118.0760 268° West 390 449 36,100  Level FlightAware ADS-B
Sun 05:36:21 AM 31.7460 118.0010 277° West 392 451 36,100  Level FlightAware ADS-B
Sun 05:37:13 AM 31.7610 117.9080 281° West 392 451 36,100  Level FlightAware ADS-B
Sun 05:37:49 AM 31.7710 117.8440 280° West 392 451 36,100  Level FlightAware ADS-B
Sun 05:38:26 AM 31.7820 117.7780 281° West 392 451 36,100  Level FlightAware ADS-B
Sun 05:39:03 AM 31.7930 117.7120 281° West 392 451 36,100  Level FlightAware ADS-B
Sun 05:39:39 AM 31.8040 117.6480 281° West 392 451 36,100  Level FlightAware ADS-B
Sun 05:40:15 AM 31.8140 117.5840 280° West 392 451 36,100  Level FlightAware ADS-B
Sun 05:41:03 AM 31.8280 117.4990 281° West 392 451 36,100  Level FlightAware ADS-B
Sun 05:41:40 AM 31.8390 117.4330 281° West 392 451 36,100  Level FlightAware ADS-B
Sun 05:42:05 AM 31.8470 117.3880 282° West 392 451 36,100  Level FlightAware ADS-B
Sun 05:42:41 AM 31.8570 117.3240 280° West 392 451 36,100  Level FlightAware ADS-B
Sun 05:43:17 AM 31.8680 117.2600 281° West 392 451 36,100  Level FlightAware ADS-B
Sun 05:44:42 AM 31.8930 117.1080 281° West 392 451 36,100  Level FlightAware ADS-B
Sun 05:45:06 AM 31.9000 117.0660 281° West 392 451 36,100  Level FlightAware ADS-B
Sun 05:45:55 AM 31.9140 116.9780 281° West 392 451 36,100  Level FlightAware ADS-B
Sun 05:46:19 AM 31.9210 116.9350 281° West 392 451 36,100  Level FlightAware ADS-B
Sun 05:49:00 AM 31.9559 116.6508 278° West  Level Estimated
Sun 05:50:00 AM 31.9688 116.5448 278° West  Level Estimated
Sun 05:51:00 AM 31.9816 116.4388 278° West  Level Estimated
Sun 05:52:00 AM 31.9943 116.3327 278° West  Level Estimated
Sun 05:53:00 AM 32.0069 116.2267 278° West  Level Estimated
Sun 05:54:00 AM 32.0194 116.1206 278° West  Level Estimated
Sun 05:55:00 AM 32.0318 116.0144 278° West  Level Estimated
Sun 05:56:00 AM 32.0441 115.9083 278° West  Level Estimated
Sun 05:57:00 AM 32.0564 115.8021 278° West  Level Estimated
Sun 05:58:00 AM 32.0686 115.6959 278° West  Level Estimated
Sun 05:59:00 AM 32.0806 115.5897 278° West  Level Estimated
Sun 06:00:00 AM 32.0926 115.4834 278° West  Level Estimated
Sun 06:01:00 AM 32.1045 115.3771 278° West  Level Estimated
Sun 06:02:00 AM 32.1163 115.2708 277° West  Level Estimated
Sun 06:03:00 AM 32.1280 115.1644 277° West  Level Estimated
Sun 06:04:00 AM 32.1396 115.0580 277° West  Level Estimated
Sun 06:05:00 AM 32.1512 114.9516 277° West  Level Estimated
Sun 06:06:00 AM 32.1626 114.8452 277° West  Level Estimated
Sun 06:07:00 AM 32.1740 114.7387 277° West  Level Estimated
Sun 06:08:00 AM 32.1852 114.6323 277° West  Level Estimated
Sun 06:09:00 AM 32.1964 114.5258 277° West  Level Estimated
Sun 06:10:00 AM 32.2075 114.4192 277° West  Level Estimated
Sun 06:11:00 AM 32.2185 114.3127 277° West  Level Estimated
Sun 06:12:00 AM 32.2294 114.2061 277° West  Level Estimated
Sun 06:13:00 AM 32.2402 114.0995 277° West  Level Estimated
Sun 06:14:00 AM 32.2510 113.9928 277° West  Level Estimated
Sun 06:15:00 AM 32.2616 113.8862 277° West  Level Estimated
Sun 06:15:50 AM 33.9590 113.7490 277° West 383 441 36,100  Level FlightAware ADS-B
Sun 06:16:00 AM 32.2722 113.7795 277° West  Level Estimated
Sun 06:16:30 AM 33.9770 113.6800 287° West 383 441 36,100  Level FlightAware ADS-B
Sun 06:17:19 AM 34.0000 113.5950 288° West 383 441 36,100  Level FlightAware ADS-B
Sun 06:18:01 AM 34.0300 113.4840 288° West 381 438 36,100  Level FlightAware ADS-B
Sun 06:18:31 AM 34.0450 113.4250 287° West 382 440 36,100  Level FlightAware ADS-B
Sun 06:19:11 AM 34.0650 113.3500 288° West 383 441 36,100  Level FlightAware ADS-B
Sun 06:19:41 AM 34.0840 113.2790 288° West 383 441 36,100  Level FlightAware ADS-B
Sun 06:20:24 AM 34.1070 113.1940 288° West 383 441 36,100  Level FlightAware ADS-B
Sun 06:21:10 AM 34.1310 113.1020 288° West 383 441 36,100  Level FlightAware ADS-B
Sun 06:21:38 AM 34.1440 113.0520 287° West 382 440 36,100  Level FlightAware ADS-B
Sun 06:22:27 AM 34.1670 112.9670 288° West 382 440 36,100  Level FlightAware ADS-B
Sun 06:23:07 AM 34.1910 112.8680 286° West 380 437 36,100  Level FlightAware ADS-B
Sun 06:23:33 AM 34.1920 112.8130 271° West 379 436 36,100  Level FlightAware ADS-B
Sun 06:24:09 AM 34.1870 112.7300 266° West 379 436 36,100  Level FlightAware ADS-B
Sun 06:24:49 AM 34.1800 112.6490 264° West 379 436 36,100  Level FlightAware ADS-B
Sun 06:25:38 AM 34.1710 112.5490 264° West 380 437 36,100  Level FlightAware ADS-B
Sun 06:26:16 AM 34.1630 112.4680 263° West 379 436 36,100  Level FlightAware ADS-B
Sun 06:26:54 AM 34.1550 112.3860 263° West 379 436 36,100  Level FlightAware ADS-B
Sun 06:27:22 AM 34.1490 112.3210 264° West 379 436 36,100  Level FlightAware ADS-B
Sun 06:27:54 AM 34.1450 112.2650 265° West 379 436 36,100  Level FlightAware ADS-B
Sun 06:28:29 AM 34.1380 112.1920 263° West 378 435 36,100  Level FlightAware ADS-B
Sun 06:28:51 AM 34.1330 112.1380 264° West 379 436 36,100  Level FlightAware ADS-B
Sun 06:29:40 AM 34.1260 112.0500 265° West 379 436 36,100  Level FlightAware ADS-B
Sun 06:30:01 AM 34.1210 111.9930 264° West 379 436 36,100  Level FlightAware ADS-B
Sun 06:30:53 AM 34.1120 111.9000 263° West 379 436 36,100  Level FlightAware ADS-B
Sun 06:31:29 AM 34.1070 111.8360 265° West 379 436 36,100  Level FlightAware ADS-B
Sun 06:31:53 AM 34.1030 111.7930 264° West 379 436 36,100  Level FlightAware ADS-B
Sun 06:32:41 AM 34.0960 111.7070 264° West 379 436 36,100  Level FlightAware ADS-B
Sun 06:33:17 AM 34.0900 111.6420 264° West 379 436 36,100  Level FlightAware ADS-B
Sun 06:33:53 AM 34.0840 111.5780 264° West 379 436 36,100  Level FlightAware ADS-B
Sun 06:34:29 AM 34.0790 111.5130 265° West 379 436 36,100  Level FlightAware ADS-B
Sun 06:35:18 AM 34.0710 111.4260 264° West 379 436 36,100  Level FlightAware ADS-B
Sun 06:36:06 AM 34.0640 111.3400 264° West 379 436 36,100  Level FlightAware ADS-B
Sun 06:36:42 AM 34.0580 111.2750 264° West 379 436 36,100  Level FlightAware ADS-B
Sun 06:37:42 AM 34.0490 111.1680 264° West 379 436 36,100  Level FlightAware ADS-B
Sun 06:38:18 AM 34.0430 111.1040 264° West 379 436 36,100  Level FlightAware ADS-B
Sun 06:39:06 AM 34.0360 111.0180 264° West 379 436 36,100  Level FlightAware ADS-B
Sun 06:39:42 AM 34.0300 110.9530 264° West 379 436 36,100  Level FlightAware ADS-B
Sun 06:39:54 AM 34.0280 110.9320 263° West 379 436 36,100 -139 Level FlightAware ADS-B
Sun 06:43:00 AM 33.9838 110.5966 261° West  Level Estimated
Sun 06:44:00 AM 33.9693 110.4884 261° West  Level Estimated
Sun 06:45:00 AM 33.9548 110.3803 261° West  Level Estimated
Sun 06:46:00 AM 33.9401 110.2723 261° West  Level Estimated
Sun 06:47:00 AM 33.9254 110.1643 261° West  Level Estimated
Sun 06:48:00 AM 33.9105 110.0563 261° West  Level Estimated
Sun 06:49:00 AM 33.8956 109.9483 261° West  Level Estimated
Sun 06:50:00 AM 33.8806 109.8404 261° West  Level Estimated
Sun 06:51:00 AM 33.8655 109.7326 260° West  Level Estimated
Sun 06:52:00 AM 33.8503 109.6247 260° West  Level Estimated
Sun 06:53:00 AM 33.8349 109.5169 260° West  Level Estimated
Sun 06:54:00 AM 33.8195 109.4092 260° West  Level Estimated
Sun 06:55:00 AM 33.8041 109.3015 260° West  Level Estimated
Sun 06:56:00 AM 33.7885 109.1938 260° West  Level Estimated
Sun 06:57:00 AM 33.7728 109.0862 260° West  Level Estimated
Sun 06:58:00 AM 33.7570 108.9786 260° West  Level Estimated
Sun 06:59:00 AM 33.7411 108.8710 260° West  Level Estimated
Sun 07:00:00 AM 33.7252 108.7635 260° West  Level Estimated
Sun 07:01:00 AM 33.7091 108.6560 260° West  Level Estimated
Sun 07:02:00 AM 33.6930 108.5486 260° West  Level Estimated
Sun 07:03:00 AM 33.6767 108.4411 260° West  Level Estimated
Sun 07:04:00 AM 33.6604 108.3338 260° West  Level Estimated
Sun 07:05:00 AM 33.6440 108.2265 260° West  Level Estimated
Sun 07:06:00 AM 33.6274 108.1192 260° West  Level Estimated
Sun 07:07:00 AM 33.6108 108.0120 259° West  Level Estimated
Sun 07:08:00 AM 33.5941 107.9048 259° West  Level Estimated
Sun 07:09:00 AM 33.5773 107.7976 259° West  Level Estimated
Sun 07:10:00 AM 33.5604 107.6905 259° West  Level Estimated
Sun 07:11:00 AM 33.5435 107.5835 259° West  Level Estimated
Sun 07:12:00 AM 33.5264 107.4764 259° West  Level Estimated
Sun 07:13:00 AM 33.5092 107.3695 259° West  Level Estimated
Sun 07:14:00 AM 33.4920 107.2625 259° West  Level Estimated
Sun 07:15:00 AM 33.4746 107.1556 259° West  Level Estimated
Sun 07:16:00 AM 33.4572 107.0488 259° West  Level Estimated
Sun 07:17:00 AM 33.4396 106.9420 259° West  Level Estimated
Sun 07:18:00 AM 33.4220 106.8352 259° West  Level Estimated
Sun 07:19:00 AM 33.4043 106.7285 259° West  Level Estimated
Sun 07:20:00 AM 33.3865 106.6218 259° West  Level Estimated
Sun 07:21:00 AM 33.3686 106.5152 259° West  Level Estimated
Sun 07:22:00 AM 33.3506 106.4086 259° West  Level Estimated
Sun 07:23:00 AM 33.3325 106.3020 259° West  Level Estimated
Sun 07:24:00 AM 33.3144 106.1955 258° West  Level Estimated
Sun 07:25:00 AM 33.2961 106.0891 258° West  Level Estimated
Sun 07:25:43 AM 32.3900 105.5910 258° West 372 428 29,700  Level FlightAware ADS-B
Sun 07:26:00 AM 33.2777 105.9826 258° West  Level Estimated
Sun 07:26:47 AM 32.3920 105.4810 271° West 372 428 29,700  Level FlightAware ADS-B
Sun 07:27:35 AM 32.3930 105.3970 271° West 372 428 29,700  Level FlightAware ADS-B
Sun 07:28:11 AM 32.3940 105.3350 271° West 372 428 29,700  Level FlightAware ADS-B
Sun 07:28:48 AM 32.3950 105.2710 271° West 372 428 29,700  Level FlightAware ADS-B
Sun 07:29:12 AM 32.3950 105.2290 270° West 372 428 29,700 -1,055 Level FlightAware ADS-B
Sun 07:32:00 AM 32.4815 104.9456 290° West  Level Estimated
Sun 07:33:00 AM 32.5122 104.8443 290° West  Level Estimated
Sun 07:34:00 AM 32.5428 104.7429 290° West  Level Estimated
Sun 07:34:35 AM 32.4070 104.5750 290° West 337 388 23,600  Level FlightAware ADS-B
Sun 07:35:00 AM 32.5734 104.6414 290° West  Level Estimated
Sun 07:35:20 AM 32.4080 104.4890 271° West 340 391 23,600  Level FlightAware ADS-B
Sun 07:36:04 AM 32.4090 104.4100 271° West 342 394 23,600  Level FlightAware ADS-B
Sun 07:36:31 AM 32.4090 104.3580 270° West 337 388 23,600  Level FlightAware ADS-B
Sun 07:37:12 AM 32.4120 104.2880 273° West 290 334 23,600 -366 Level FlightAware ADS-B
Sun 07:37:53 AM 32.4240 104.2290 284° West 276 318 23,100 -1,429 Descending FlightAware ADS-B
Sun 07:38:36 AM 32.4520 104.1650 297° West 307 353 21,600 -1,268 Descending FlightAware ADS-B
Sun 07:39:04 AM 32.4700 104.1310 302° West 307 353 21,600  Level FlightAware ADS-B
Sun 07:39:40 AM 32.4930 104.0870 302° West 307 353 21,600  Level FlightAware ADS-B
Sun 07:40:28 AM 32.5240 104.0290 302° West 307 353 21,600  Level FlightAware ADS-B
Sun 07:41:04 AM 32.5470 103.9850 302° West 307 353 21,600  Level FlightAware ADS-B
Sun 07:41:52 AM 32.5780 103.9270 302° West 307 353 21,600  Level FlightAware ADS-B
Sun 07:42:28 AM 32.6010 103.8830 302° West 307 353 21,600  Level FlightAware ADS-B
Sun 07:45:00 AM 32.7933 103.7329 327° Northwest  Level Estimated
Sun 07:46:00 AM 32.8570 103.6830 327° Northwest  Level Estimated
Sun 07:47:00 AM 32.8570 103.6830 North  Level Estimated
Sun 07:48:00 AM 32.8570 103.6830 North  Level Estimated
Sun 07:49:00 AM 32.8570 103.6830 North  Level Estimated
Sun 07:50:00 AM 32.8570 103.6830 North  Level Estimated
Sun 07:51:00 AM 32.8570 103.6830 North  Level Estimated
Sun 07:52:00 AM 32.8570 103.6830 North  Level Estimated
Sun 07:53:00 AM 32.8570 103.6830 North  Level Estimated
Sun 07:54:00 AM 32.8570 103.6830 North  Level Estimated
Sun 07:55:00 AM 32.8570 103.6830 North  Level Estimated
Sun 07:56:00 AM 32.8570 103.6830 North  Level Estimated
Sun 07:57:00 AM 32.8570 103.6830 North  Level Estimated
Sun 07:58:00 AM 32.8570 103.6830 North  Level Estimated
Sun 07:59:00 AM 32.8570 103.6830 North  Level Estimated
Sun 08:00:00 AM 32.8570 103.6830 North  Level Estimated
Sun 08:01:00 AM 32.8570 103.6830 North  Level Estimated

Login

Don't have an account? Register now (free) for customized features, flight alerts, and more!